sensor_id;sensor_type;location;lat;lon;timestamp;temperature;humidity
1129;DHT22;553;51.038;7.216;2023-12-20T00:01:01;8.00;99.90
1129;DHT22;553;51.038;7.216;2023-12-20T00:03:29;8.00;99.90
1129;DHT22;553;51.038;7.216;2023-12-20T00:06:07;8.00;99.90
1129;DHT22;553;51.038;7.216;2023-12-20T00:08:34;8.00;99.90
1129;DHT22;553;51.038;7.216;2023-12-20T00:11:01;8.00;99.90
1129;DHT22;553;51.038;7.216;2023-12-20T00:13:27;7.90;99.90
1129;DHT22;553;51.038;7.216;2023-12-20T00:15:54;8.00;99.90
1129;DHT22;553;51.038;7.216;2023-12-20T00:18:21;7.90;99.90
1129;DHT22;553;51.038;7.216;2023-12-20T00:20:48;7.90;99.90
1129;DHT22;553;51.038;7.216;2023-12-20T00:23:14;8.00;99.90
1129;DHT22;553;51.038;7.216;2023-12-20T00:25:41;8.10;99.90
1129;DHT22;553;51.038;7.216;2023-12-20T00:28:08;8.00;99.90
1129;DHT22;553;51.038;7.216;2023-12-20T00:30:35;8.00;99.90
1129;DHT22;553;51.038;7.216;2023-12-20T00:33:03;8.10;99.90
1129;DHT22;553;51.038;7.216;2023-12-20T00:35:30;8.00;99.90
1129;DHT22;553;51.038;7.216;2023-12-20T00:37:58;8.10;99.90
1129;DHT22;553;51.038;7.216;2023-12-20T00:40:25;8.20;99.90
1129;DHT22;553;51.038;7.216;2023-12-20T00:42:52;8.10;99.90
1129;DHT22;553;51.038;7.216;2023-12-20T00:45:19;8.10;99.90
1129;DHT22;553;51.038;7.216;2023-12-20T00:47:45;7.90;99.90
1129;DHT22;553;51.038;7.216;2023-12-20T00:50:13;7.70;99.90
1129;DHT22;553;51.038;7.216;2023-12-20T00:52:40;7.70;99.90
1129;DHT22;553;51.038;7.216;2023-12-20T00:55:07;7.60;99.90
1129;DHT22;553;51.038;7.216;2023-12-20T00:57:34;7.50;99.90
1129;DHT22;553;51.038;7.216;2023-12-20T01:00:01;7.50;99.90
1129;DHT22;553;51.038;7.216;2023-12-20T01:02:29;7.60;99.90
1129;DHT22;553;51.038;7.216;2023-12-20T01:04:56;7.60;99.90
1129;DHT22;553;51.038;7.216;2023-12-20T01:07:23;7.60;99.90
1129;DHT22;553;51.038;7.216;2023-12-20T01:09:50;7.70;99.90
1129;DHT22;553;51.038;7.216;2023-12-20T01:12:16;7.60;99.90
1129;DHT22;553;51.038;7.216;2023-12-20T01:14:43;7.60;99.90
1129;DHT22;553;51.038;7.216;2023-12-20T01:17:10;7.60;99.90
1129;DHT22;553;51.038;7.216;2023-12-20T01:19:36;7.70;99.90
1129;DHT22;553;51.038;7.216;2023-12-20T01:22:04;7.70;99.90
1129;DHT22;553;51.038;7.216;2023-12-20T01:24:31;7.70;99.90
1129;DHT22;553;51.038;7.216;2023-12-20T01:26:57;7.70;99.90
1129;DHT22;553;51.038;7.216;2023-12-20T01:29:24;7.70;99.90
1129;DHT22;553;51.038;7.216;2023-12-20T01:31:51;7.70;99.90
1129;DHT22;553;51.038;7.216;2023-12-20T01:34:18;7.60;99.90
1129;DHT22;553;51.038;7.216;2023-12-20T01:36:45;7.60;99.90
1129;DHT22;553;51.038;7.216;2023-12-20T01:39:12;7.60;99.90
1129;DHT22;553;51.038;7.216;2023-12-20T01:41:53;7.60;99.90
1129;DHT22;553;51.038;7.216;2023-12-20T01:44:20;7.60;99.90
1129;DHT22;553;51.038;7.216;2023-12-20T01:46:47;7.70;99.90
1129;DHT22;553;51.038;7.216;2023-12-20T01:49:15;7.60;99.90
1129;DHT22;553;51.038;7.216;2023-12-20T01:51:43;7.60;99.90
1129;DHT22;553;51.038;7.216;2023-12-20T01:54:10;7.60;99.90
1129;DHT22;553;51.038;7.216;2023-12-20T01:56:37;7.60;99.90
1129;DHT22;553;51.038;7.216;2023-12-20T01:59:04;7.50;99.90
1129;DHT22;553;51.038;7.216;2023-12-20T02:01:33;7.50;99.90
1129;DHT22;553;51.038;7.216;2023-12-20T02:04:00;7.50;99.90
1129;DHT22;553;51.038;7.216;2023-12-20T02:06:30;7.40;99.90
1129;DHT22;553;51.038;7.216;2023-12-20T02:09:00;7.40;99.90
1129;DHT22;553;51.038;7.216;2023-12-20T02:11:26;7.40;99.90
1129;DHT22;553;51.038;7.216;2023-12-20T02:13:54;7.40;99.90
1129;DHT22;553;51.038;7.216;2023-12-20T02:16:21;7.40;99.90
1129;DHT22;553;51.038;7.216;2023-12-20T02:18:48;7.50;99.90
1129;DHT22;553;51.038;7.216;2023-12-20T02:21:16;7.40;99.90
1129;DHT22;553;51.038;7.216;2023-12-20T02:23:42;7.40;99.90
1129;DHT22;553;51.038;7.216;2023-12-20T02:26:09;7.30;99.90
1129;DHT22;553;51.038;7.216;2023-12-20T02:28:36;7.30;99.90
1129;DHT22;553;51.038;7.216;2023-12-20T02:31:03;7.20;99.90
1129;DHT22;553;51.038;7.216;2023-12-20T02:33:30;7.20;99.90
1129;DHT22;553;51.038;7.216;2023-12-20T02:35:57;7.20;99.90
1129;DHT22;553;51.038;7.216;2023-12-20T02:38:23;7.10;99.90
1129;DHT22;553;51.038;7.216;2023-12-20T02:40:50;7.00;99.90
1129;DHT22;553;51.038;7.216;2023-12-20T02:43:17;7.10;99.90
1129;DHT22;553;51.038;7.216;2023-12-20T02:45:43;7.10;99.90
1129;DHT22;553;51.038;7.216;2023-12-20T02:48:10;7.00;99.90
1129;DHT22;553;51.038;7.216;2023-12-20T02:50:37;6.90;99.90
1129;DHT22;553;51.038;7.216;2023-12-20T02:53:04;6.90;99.90
1129;DHT22;553;51.038;7.216;2023-12-20T02:55:31;6.90;99.90
1129;DHT22;553;51.038;7.216;2023-12-20T02:57:57;7.00;99.90
1129;DHT22;553;51.038;7.216;2023-12-20T03:00:24;7.00;99.90
1129;DHT22;553;51.038;7.216;2023-12-20T03:02:51;6.90;99.90
1129;DHT22;553;51.038;7.216;2023-12-20T03:05:18;6.90;99.90
1129;DHT22;553;51.038;7.216;2023-12-20T03:07:45;6.90;99.90
1129;DHT22;553;51.038;7.216;2023-12-20T03:10:12;6.90;99.90
1129;DHT22;553;51.038;7.216;2023-12-20T03:12:49;6.80;99.90
1129;DHT22;553;51.038;7.216;2023-12-20T03:15:16;6.60;99.90
1129;DHT22;553;51.038;7.216;2023-12-20T03:17:43;6.70;99.90
1129;DHT22;553;51.038;7.216;2023-12-20T03:20:11;6.80;99.90
1129;DHT22;553;51.038;7.216;2023-12-20T03:22:38;6.70;99.90
1129;DHT22;553;51.038;7.216;2023-12-20T03:25:05;6.60;99.90
1129;DHT22;553;51.038;7.216;2023-12-20T03:27:32;6.60;99.90
1129;DHT22;553;51.038;7.216;2023-12-20T03:29:58;6.70;99.90
1129;DHT22;553;51.038;7.216;2023-12-20T03:32:25;6.50;99.90
1129;DHT22;553;51.038;7.216;2023-12-20T03:34:52;6.60;99.90
1129;DHT22;553;51.038;7.216;2023-12-20T03:37:19;6.60;99.90
1129;DHT22;553;51.038;7.216;2023-12-20T03:39:46;6.60;99.90
1129;DHT22;553;51.038;7.216;2023-12-20T03:42:13;6.60;99.90
1129;DHT22;553;51.038;7.216;2023-12-20T03:44:39;6.70;99.90
1129;DHT22;553;51.038;7.216;2023-12-20T03:47:07;6.70;99.90
1129;DHT22;553;51.038;7.216;2023-12-20T03:49:34;6.60;99.90
1129;DHT22;553;51.038;7.216;2023-12-20T03:52:03;6.50;99.90
1129;DHT22;553;51.038;7.216;2023-12-20T03:54:30;6.60;99.90
1129;DHT22;553;51.038;7.216;2023-12-20T03:56:57;6.60;99.90
1129;DHT22;553;51.038;7.216;2023-12-20T03:59:24;6.50;99.90
1129;DHT22;553;51.038;7.216;2023-12-20T04:01:50;6.50;99.90
1129;DHT22;553;51.038;7.216;2023-12-20T04:04:17;6.40;99.90
1129;DHT22;553;51.038;7.216;2023-12-20T04:06:44;6.40;99.90
1129;DHT22;553;51.038;7.216;2023-12-20T04:09:11;6.50;99.90
1129;DHT22;553;51.038;7.216;2023-12-20T04:11:38;6.50;99.90
1129;DHT22;553;51.038;7.216;2023-12-20T04:14:05;6.50;99.90
1129;DHT22;553;51.038;7.216;2023-12-20T04:16:32;6.50;99.90
1129;DHT22;553;51.038;7.216;2023-12-20T04:18:58;6.50;99.90
1129;DHT22;553;51.038;7.216;2023-12-20T04:21:25;6.50;99.90
1129;DHT22;553;51.038;7.216;2023-12-20T04:23:52;6.60;99.90
1129;DHT22;553;51.038;7.216;2023-12-20T04:26:18;6.50;99.90
1129;DHT22;553;51.038;7.216;2023-12-20T04:28:45;6.60;99.90
1129;DHT22;553;51.038;7.216;2023-12-20T04:31:12;6.70;99.90
1129;DHT22;553;51.038;7.216;2023-12-20T04:33:40;6.70;99.90
1129;DHT22;553;51.038;7.216;2023-12-20T04:36:07;6.70;99.90
1129;DHT22;553;51.038;7.216;2023-12-20T04:38:35;6.60;99.90
1129;DHT22;553;51.038;7.216;2023-12-20T04:41:02;6.60;99.90
1129;DHT22;553;51.038;7.216;2023-12-20T04:43:29;6.60;99.90
1129;DHT22;553;51.038;7.216;2023-12-20T04:45:56;6.50;99.90
1129;DHT22;553;51.038;7.216;2023-12-20T04:48:23;6.50;99.90
1129;DHT22;553;51.038;7.216;2023-12-20T04:50:49;6.40;99.90
1129;DHT22;553;51.038;7.216;2023-12-20T04:53:16;6.30;99.90
1129;DHT22;553;51.038;7.216;2023-12-20T04:55:43;6.40;99.90
1129;DHT22;553;51.038;7.216;2023-12-20T04:58:10;6.40;99.90
1129;DHT22;553;51.038;7.216;2023-12-20T05:00:37;6.50;99.90
1129;DHT22;553;51.038;7.216;2023-12-20T05:03:04;6.50;99.90
1129;DHT22;553;51.038;7.216;2023-12-20T05:05:31;6.50;99.90
1129;DHT22;553;51.038;7.216;2023-12-20T05:07:58;6.50;99.90
1129;DHT22;553;51.038;7.216;2023-12-20T05:10:25;6.40;99.90
1129;DHT22;553;51.038;7.216;2023-12-20T05:12:53;6.50;99.90
1129;DHT22;553;51.038;7.216;2023-12-20T05:15:20;6.50;99.90
1129;DHT22;553;51.038;7.216;2023-12-20T05:17:47;6.50;99.90
1129;DHT22;553;51.038;7.216;2023-12-20T05:20:14;6.50;99.90
1129;DHT22;553;51.038;7.216;2023-12-20T05:22:41;6.50;99.90
1129;DHT22;553;51.038;7.216;2023-12-20T05:25:08;6.40;99.90
1129;DHT22;553;51.038;7.216;2023-12-20T05:27:34;6.40;99.90
1129;DHT22;553;51.038;7.216;2023-12-20T05:30:01;6.50;99.90
1129;DHT22;553;51.038;7.216;2023-12-20T05:32:28;6.40;99.90
1129;DHT22;553;51.038;7.216;2023-12-20T05:34:55;6.40;99.90
1129;DHT22;553;51.038;7.216;2023-12-20T05:37:22;6.40;99.90
1129;DHT22;553;51.038;7.216;2023-12-20T05:39:49;6.30;99.90
1129;DHT22;553;51.038;7.216;2023-12-20T05:42:16;6.30;99.90
1129;DHT22;553;51.038;7.216;2023-12-20T05:44:42;6.30;99.90
1129;DHT22;553;51.038;7.216;2023-12-20T05:47:09;6.30;99.90
1129;DHT22;553;51.038;7.216;2023-12-20T05:49:36;6.30;99.90
1129;DHT22;553;51.038;7.216;2023-12-20T05:52:03;6.20;99.90
1129;DHT22;553;51.038;7.216;2023-12-20T05:54:30;6.30;99.90
1129;DHT22;553;51.038;7.216;2023-12-20T05:56:57;6.30;99.90
1129;DHT22;553;51.038;7.216;2023-12-20T05:59:23;6.40;99.90
1129;DHT22;553;51.038;7.216;2023-12-20T06:01:50;6.40;99.90
1129;DHT22;553;51.038;7.216;2023-12-20T06:04:17;6.40;99.90
1129;DHT22;553;51.038;7.216;2023-12-20T06:06:45;6.40;99.90
1129;DHT22;553;51.038;7.216;2023-12-20T06:09:12;6.40;99.90
1129;DHT22;553;51.038;7.216;2023-12-20T06:11:39;6.40;99.90
1129;DHT22;553;51.038;7.216;2023-12-20T06:14:05;6.30;99.90
1129;DHT22;553;51.038;7.216;2023-12-20T06:16:32;6.20;99.90
1129;DHT22;553;51.038;7.216;2023-12-20T06:18:59;6.20;99.90
1129;DHT22;553;51.038;7.216;2023-12-20T06:21:26;6.20;99.90
1129;DHT22;553;51.038;7.216;2023-12-20T06:23:52;6.20;99.90
1129;DHT22;553;51.038;7.216;2023-12-20T06:26:19;6.20;99.90
1129;DHT22;553;51.038;7.216;2023-12-20T06:28:46;6.20;99.90
1129;DHT22;553;51.038;7.216;2023-12-20T06:31:12;6.30;99.90
1129;DHT22;553;51.038;7.216;2023-12-20T06:33:39;6.30;99.90
1129;DHT22;553;51.038;7.216;2023-12-20T06:36:10;6.30;99.90
1129;DHT22;553;51.038;7.216;2023-12-20T06:38:37;6.20;99.90
1129;DHT22;553;51.038;7.216;2023-12-20T06:41:03;6.30;99.90
1129;DHT22;553;51.038;7.216;2023-12-20T06:43:30;6.30;99.90
1129;DHT22;553;51.038;7.216;2023-12-20T06:46:14;6.30;99.90
1129;DHT22;553;51.038;7.216;2023-12-20T06:48:41;6.30;99.90
1129;DHT22;553;51.038;7.216;2023-12-20T06:51:14;6.30;99.90
1129;DHT22;553;51.038;7.216;2023-12-20T06:53:41;6.30;99.90
1129;DHT22;553;51.038;7.216;2023-12-20T06:56:10;6.30;99.90
1129;DHT22;553;51.038;7.216;2023-12-20T06:58:36;6.30;99.90
1129;DHT22;553;51.038;7.216;2023-12-20T07:01:04;6.30;99.90
1129;DHT22;553;51.038;7.216;2023-12-20T07:03:31;6.40;99.90
1129;DHT22;553;51.038;7.216;2023-12-20T07:05:58;6.40;99.90
1129;DHT22;553;51.038;7.216;2023-12-20T07:08:26;6.20;99.90
1129;DHT22;553;51.038;7.216;2023-12-20T07:10:52;6.30;99.90
1129;DHT22;553;51.038;7.216;2023-12-20T07:13:19;6.40;99.90
1129;DHT22;553;51.038;7.216;2023-12-20T07:15:46;6.30;99.90
1129;DHT22;553;51.038;7.216;2023-12-20T07:18:12;6.30;99.90
1129;DHT22;553;51.038;7.216;2023-12-20T07:20:39;6.30;99.90
1129;DHT22;553;51.038;7.216;2023-12-20T07:23:06;6.30;99.90
1129;DHT22;553;51.038;7.216;2023-12-20T07:25:33;6.30;99.90
1129;DHT22;553;51.038;7.216;2023-12-20T07:28:00;6.30;99.90
1129;DHT22;553;51.038;7.216;2023-12-20T07:30:26;6.30;99.90
1129;DHT22;553;51.038;7.216;2023-12-20T07:32:54;6.20;99.90
1129;DHT22;553;51.038;7.216;2023-12-20T07:35:20;6.30;99.90
1129;DHT22;553;51.038;7.216;2023-12-20T07:37:47;6.30;99.90
1129;DHT22;553;51.038;7.216;2023-12-20T07:40:14;6.40;99.90
1129;DHT22;553;51.038;7.216;2023-12-20T07:42:43;6.40;99.90
1129;DHT22;553;51.038;7.216;2023-12-20T07:45:10;6.50;99.90
1129;DHT22;553;51.038;7.216;2023-12-20T07:47:38;6.40;99.90
1129;DHT22;553;51.038;7.216;2023-12-20T07:50:05;6.30;99.90
1129;DHT22;553;51.038;7.216;2023-12-20T07:52:32;6.40;99.90
1129;DHT22;553;51.038;7.216;2023-12-20T07:54:58;6.50;99.90
1129;DHT22;553;51.038;7.216;2023-12-20T07:57:28;6.50;99.90
1129;DHT22;553;51.038;7.216;2023-12-20T07:59:55;6.50;99.90
1129;DHT22;553;51.038;7.216;2023-12-20T08:02:22;6.50;99.90
1129;DHT22;553;51.038;7.216;2023-12-20T08:04:49;6.50;99.90
1129;DHT22;553;51.038;7.216;2023-12-20T08:07:16;6.50;99.90
1129;DHT22;553;51.038;7.216;2023-12-20T08:09:42;6.50;99.90
1129;DHT22;553;51.038;7.216;2023-12-20T08:12:10;6.40;99.90
1129;DHT22;553;51.038;7.216;2023-12-20T08:14:38;6.40;99.90
1129;DHT22;553;51.038;7.216;2023-12-20T08:17:04;6.40;99.90
1129;DHT22;553;51.038;7.216;2023-12-20T08:19:31;6.40;99.90
1129;DHT22;553;51.038;7.216;2023-12-20T08:21:58;6.40;99.90
1129;DHT22;553;51.038;7.216;2023-12-20T08:24:25;6.30;99.90
1129;DHT22;553;51.038;7.216;2023-12-20T08:26:51;6.40;99.90
1129;DHT22;553;51.038;7.216;2023-12-20T08:29:19;6.40;99.90
1129;DHT22;553;51.038;7.216;2023-12-20T08:31:45;6.40;99.90
1129;DHT22;553;51.038;7.216;2023-12-20T08:34:13;6.40;99.90
1129;DHT22;553;51.038;7.216;2023-12-20T08:36:41;6.30;99.90
1129;DHT22;553;51.038;7.216;2023-12-20T08:39:08;6.30;99.90
1129;DHT22;553;51.038;7.216;2023-12-20T08:41:35;6.40;99.90
1129;DHT22;553;51.038;7.216;2023-12-20T08:44:02;6.50;99.90
1129;DHT22;553;51.038;7.216;2023-12-20T08:46:29;6.40;99.90
1129;DHT22;553;51.038;7.216;2023-12-20T08:48:55;6.40;99.90
1129;DHT22;553;51.038;7.216;2023-12-20T08:51:23;6.40;99.90
1129;DHT22;553;51.038;7.216;2023-12-20T08:53:52;6.40;99.90
1129;DHT22;553;51.038;7.216;2023-12-20T08:56:19;6.40;99.90
1129;DHT22;553;51.038;7.216;2023-12-20T08:58:46;6.40;99.90
1129;DHT22;553;51.038;7.216;2023-12-20T09:01:14;6.40;99.90
1129;DHT22;553;51.038;7.216;2023-12-20T09:03:41;6.30;99.90
1129;DHT22;553;51.038;7.216;2023-12-20T09:06:09;6.40;99.90
1129;DHT22;553;51.038;7.216;2023-12-20T09:08:35;6.40;99.90
1129;DHT22;553;51.038;7.216;2023-12-20T09:11:02;6.40;99.90
1129;DHT22;553;51.038;7.216;2023-12-20T09:13:29;6.40;99.90
1129;DHT22;553;51.038;7.216;2023-12-20T09:15:58;6.40;99.90
1129;DHT22;553;51.038;7.216;2023-12-20T09:18:25;6.50;99.90
1129;DHT22;553;51.038;7.216;2023-12-20T09:20:52;6.40;99.90
1129;DHT22;553;51.038;7.216;2023-12-20T09:23:19;6.40;99.90
1129;DHT22;553;51.038;7.216;2023-12-20T09:25:45;6.50;99.90
1129;DHT22;553;51.038;7.216;2023-12-20T09:28:12;6.50;99.90
1129;DHT22;553;51.038;7.216;2023-12-20T09:30:39;6.60;99.90
1129;DHT22;553;51.038;7.216;2023-12-20T09:33:07;6.50;99.90
1129;DHT22;553;51.038;7.216;2023-12-20T09:35:34;6.60;99.90
1129;DHT22;553;51.038;7.216;2023-12-20T09:38:01;6.50;99.90
1129;DHT22;553;51.038;7.216;2023-12-20T09:40:29;6.50;99.90
1129;DHT22;553;51.038;7.216;2023-12-20T09:43:03;6.50;99.90
1129;DHT22;553;51.038;7.216;2023-12-20T09:45:31;6.50;99.90
1129;DHT22;553;51.038;7.216;2023-12-20T09:47:59;6.40;99.90
1129;DHT22;553;51.038;7.216;2023-12-20T09:50:26;6.50;99.90
1129;DHT22;553;51.038;7.216;2023-12-20T09:52:54;6.50;99.90
1129;DHT22;553;51.038;7.216;2023-12-20T09:55:25;6.50;99.90
1129;DHT22;553;51.038;7.216;2023-12-20T09:57:52;6.50;99.90
1129;DHT22;553;51.038;7.216;2023-12-20T10:00:19;6.50;99.90
1129;DHT22;553;51.038;7.216;2023-12-20T10:02:53;6.50;99.90
1129;DHT22;553;51.038;7.216;2023-12-20T10:05:28;6.50;99.90
1129;DHT22;553;51.038;7.216;2023-12-20T10:07:56;6.50;99.90
1129;DHT22;553;51.038;7.216;2023-12-20T10:10:23;6.50;99.90
1129;DHT22;553;51.038;7.216;2023-12-20T10:13:08;6.60;99.90
1129;DHT22;553;51.038;7.216;2023-12-20T10:15:36;6.60;99.90
1129;DHT22;553;51.038;7.216;2023-12-20T10:18:03;6.60;99.90
1129;DHT22;553;51.038;7.216;2023-12-20T10:20:31;6.50;99.90
1129;DHT22;553;51.038;7.216;2023-12-20T10:22:59;6.50;99.90
1129;DHT22;553;51.038;7.216;2023-12-20T10:25:27;6.50;99.90
1129;DHT22;553;51.038;7.216;2023-12-20T10:28:14;6.50;99.90
1129;DHT22;553;51.038;7.216;2023-12-20T10:30:41;6.50;99.90
1129;DHT22;553;51.038;7.216;2023-12-20T10:33:10;6.50;99.90
1129;DHT22;553;51.038;7.216;2023-12-20T10:35:39;7.10;99.90
1129;DHT22;553;51.038;7.216;2023-12-20T10:38:11;7.00;99.90
1129;DHT22;553;51.038;7.216;2023-12-20T10:40:39;6.80;99.90
1129;DHT22;553;51.038;7.216;2023-12-20T10:43:07;6.70;99.90
1129;DHT22;553;51.038;7.216;2023-12-20T10:45:34;6.70;99.90
1129;DHT22;553;51.038;7.216;2023-12-20T10:48:02;6.70;99.90
1129;DHT22;553;51.038;7.216;2023-12-20T10:50:31;6.70;99.90
1129;DHT22;553;51.038;7.216;2023-12-20T10:52:59;6.70;99.90
1129;DHT22;553;51.038;7.216;2023-12-20T10:55:27;6.60;99.90
1129;DHT22;553;51.038;7.216;2023-12-20T10:58:00;6.70;99.90
1129;DHT22;553;51.038;7.216;2023-12-20T11:00:29;6.80;99.90
1129;DHT22;553;51.038;7.216;2023-12-20T11:03:00;6.80;99.90
1129;DHT22;553;51.038;7.216;2023-12-20T11:05:38;6.70;99.90
1129;DHT22;553;51.038;7.216;2023-12-20T11:08:14;6.70;99.90
1129;DHT22;553;51.038;7.216;2023-12-20T11:11:06;6.80;99.90
1129;DHT22;553;51.038;7.216;2023-12-20T11:13:43;6.80;99.90
1129;DHT22;553;51.038;7.216;2023-12-20T11:16:11;6.80;99.90
1129;DHT22;553;51.038;7.216;2023-12-20T11:18:40;6.80;99.90
1129;DHT22;553;51.038;7.216;2023-12-20T11:21:07;6.80;99.90
1129;DHT22;553;51.038;7.216;2023-12-20T11:23:35;6.80;99.90
1129;DHT22;553;51.038;7.216;2023-12-20T11:26:03;6.80;99.90
1129;DHT22;553;51.038;7.216;2023-12-20T11:28:29;6.80;99.90
1129;DHT22;553;51.038;7.216;2023-12-20T11:30:58;6.70;99.90
1129;DHT22;553;51.038;7.216;2023-12-20T11:33:36;6.70;99.90
1129;DHT22;553;51.038;7.216;2023-12-20T11:36:03;6.70;99.90
1129;DHT22;553;51.038;7.216;2023-12-20T11:38:36;6.70;99.90
1129;DHT22;553;51.038;7.216;2023-12-20T11:41:07;6.70;99.90
1129;DHT22;553;51.038;7.216;2023-12-20T11:43:37;6.70;99.90
1129;DHT22;553;51.038;7.216;2023-12-20T11:46:05;6.70;99.90
1129;DHT22;553;51.038;7.216;2023-12-20T11:48:36;6.80;99.90
1129;DHT22;553;51.038;7.216;2023-12-20T11:51:09;6.80;99.90
1129;DHT22;553;51.038;7.216;2023-12-20T11:53:37;6.70;99.90
1129;DHT22;553;51.038;7.216;2023-12-20T11:56:07;6.70;99.90
1129;DHT22;553;51.038;7.216;2023-12-20T11:58:34;6.70;99.90
1129;DHT22;553;51.038;7.216;2023-12-20T12:01:02;6.80;99.90
1129;DHT22;553;51.038;7.216;2023-12-20T12:03:29;6.80;99.90
1129;DHT22;553;51.038;7.216;2023-12-20T12:05:57;6.80;99.90
1129;DHT22;553;51.038;7.216;2023-12-20T12:08:24;6.80;99.90
1129;DHT22;553;51.038;7.216;2023-12-20T12:10:51;6.80;99.90
1129;DHT22;553;51.038;7.216;2023-12-20T12:13:18;6.90;99.90
1129;DHT22;553;51.038;7.216;2023-12-20T12:15:45;6.70;99.90
1129;DHT22;553;51.038;7.216;2023-12-20T12:18:16;6.70;99.90
1129;DHT22;553;51.038;7.216;2023-12-20T12:20:43;6.60;99.90
1129;DHT22;553;51.038;7.216;2023-12-20T12:23:10;6.60;99.90
1129;DHT22;553;51.038;7.216;2023-12-20T12:25:37;6.60;99.90
1129;DHT22;553;51.038;7.216;2023-12-20T12:28:09;6.60;99.90
1129;DHT22;553;51.038;7.216;2023-12-20T12:30:36;6.70;99.90
1129;DHT22;553;51.038;7.216;2023-12-20T12:33:12;6.70;99.90
1129;DHT22;553;51.038;7.216;2023-12-20T12:35:40;6.70;99.90
1129;DHT22;553;51.038;7.216;2023-12-20T12:38:07;6.70;99.90
1129;DHT22;553;51.038;7.216;2023-12-20T12:40:35;6.60;99.90
1129;DHT22;553;51.038;7.216;2023-12-20T12:43:03;6.70;99.90
1129;DHT22;553;51.038;7.216;2023-12-20T12:45:30;6.80;99.90
1129;DHT22;553;51.038;7.216;2023-12-20T12:47:57;6.70;99.90
1129;DHT22;553;51.038;7.216;2023-12-20T12:50:24;6.80;99.90
1129;DHT22;553;51.038;7.216;2023-12-20T12:52:51;7.40;99.90
1129;DHT22;553;51.038;7.216;2023-12-20T12:55:18;7.20;99.90
1129;DHT22;553;51.038;7.216;2023-12-20T12:57:45;7.00;99.90
1129;DHT22;553;51.038;7.216;2023-12-20T13:00:12;6.90;99.90
1129;DHT22;553;51.038;7.216;2023-12-20T13:02:39;6.90;99.90
1129;DHT22;553;51.038;7.216;2023-12-20T13:05:08;6.80;99.90
1129;DHT22;553;51.038;7.216;2023-12-20T13:07:36;6.80;99.90
1129;DHT22;553;51.038;7.216;2023-12-20T13:10:04;6.80;99.90
1129;DHT22;553;51.038;7.216;2023-12-20T13:12:32;6.70;99.90
1129;DHT22;553;51.038;7.216;2023-12-20T13:14:59;6.80;99.90
1129;DHT22;553;51.038;7.216;2023-12-20T13:17:26;6.80;99.90
1129;DHT22;553;51.038;7.216;2023-12-20T13:19:55;6.70;99.90
1129;DHT22;553;51.038;7.216;2023-12-20T13:22:22;6.80;99.90
1129;DHT22;553;51.038;7.216;2023-12-20T13:24:50;6.90;99.90
1129;DHT22;553;51.038;7.216;2023-12-20T13:27:17;6.90;99.90
1129;DHT22;553;51.038;7.216;2023-12-20T13:29:43;6.80;99.90
1129;DHT22;553;51.038;7.216;2023-12-20T13:32:10;6.80;99.90
1129;DHT22;553;51.038;7.216;2023-12-20T13:34:37;6.80;99.90
1129;DHT22;553;51.038;7.216;2023-12-20T13:37:04;6.70;99.90
1129;DHT22;553;51.038;7.216;2023-12-20T13:39:31;6.80;99.90
1129;DHT22;553;51.038;7.216;2023-12-20T13:41:58;6.70;99.90
1129;DHT22;553;51.038;7.216;2023-12-20T13:44:27;6.80;99.90
1129;DHT22;553;51.038;7.216;2023-12-20T13:46:54;6.80;99.90
1129;DHT22;553;51.038;7.216;2023-12-20T13:49:21;6.80;99.90
1129;DHT22;553;51.038;7.216;2023-12-20T13:51:52;7.20;99.90
1129;DHT22;553;51.038;7.216;2023-12-20T13:54:21;7.20;99.90
1129;DHT22;553;51.038;7.216;2023-12-20T13:56:49;7.20;99.90
1129;DHT22;553;51.038;7.216;2023-12-20T13:59:34;7.00;99.90
1129;DHT22;553;51.038;7.216;2023-12-20T14:02:01;7.00;99.90
1129;DHT22;553;51.038;7.216;2023-12-20T14:04:30;7.00;99.90
1129;DHT22;553;51.038;7.216;2023-12-20T14:07:09;6.90;99.90
1129;DHT22;553;51.038;7.216;2023-12-20T14:09:37;7.00;99.90
1129;DHT22;553;51.038;7.216;2023-12-20T14:12:04;7.00;99.90
1129;DHT22;553;51.038;7.216;2023-12-20T14:14:32;6.90;99.90
1129;DHT22;553;51.038;7.216;2023-12-20T14:16:58;6.90;99.90
1129;DHT22;553;51.038;7.216;2023-12-20T14:19:25;6.80;99.90
1129;DHT22;553;51.038;7.216;2023-12-20T14:21:52;6.90;99.90
1129;DHT22;553;51.038;7.216;2023-12-20T14:24:19;6.80;99.90
1129;DHT22;553;51.038;7.216;2023-12-20T14:26:46;6.80;99.90
1129;DHT22;553;51.038;7.216;2023-12-20T14:29:13;6.90;99.90
1129;DHT22;553;51.038;7.216;2023-12-20T14:31:39;7.00;99.90
1129;DHT22;553;51.038;7.216;2023-12-20T14:34:07;7.00;99.90
1129;DHT22;553;51.038;7.216;2023-12-20T14:36:35;7.00;99.90
1129;DHT22;553;51.038;7.216;2023-12-20T14:39:02;7.00;99.90
1129;DHT22;553;51.038;7.216;2023-12-20T14:41:30;7.00;99.90
1129;DHT22;553;51.038;7.216;2023-12-20T14:43:58;7.00;99.90
1129;DHT22;553;51.038;7.216;2023-12-20T14:46:26;7.00;99.90
1129;DHT22;553;51.038;7.216;2023-12-20T14:48:53;7.00;99.90
1129;DHT22;553;51.038;7.216;2023-12-20T14:51:20;7.10;99.90
1129;DHT22;553;51.038;7.216;2023-12-20T14:53:47;7.10;99.90
1129;DHT22;553;51.038;7.216;2023-12-20T14:56:14;7.10;99.90
1129;DHT22;553;51.038;7.216;2023-12-20T14:58:41;7.00;99.90
1129;DHT22;553;51.038;7.216;2023-12-20T15:01:08;7.00;99.90
1129;DHT22;553;51.038;7.216;2023-12-20T15:03:35;7.10;99.90
1129;DHT22;553;51.038;7.216;2023-12-20T15:06:02;7.10;99.90
1129;DHT22;553;51.038;7.216;2023-12-20T15:08:29;7.10;99.90
1129;DHT22;553;51.038;7.216;2023-12-20T15:10:57;7.10;99.90
1129;DHT22;553;51.038;7.216;2023-12-20T15:13:24;7.20;99.90
1129;DHT22;553;51.038;7.216;2023-12-20T15:15:51;7.20;99.90
1129;DHT22;553;51.038;7.216;2023-12-20T15:18:17;7.20;99.90
1129;DHT22;553;51.038;7.216;2023-12-20T15:20:44;7.20;99.90
1129;DHT22;553;51.038;7.216;2023-12-20T15:23:11;7.20;99.90
1129;DHT22;553;51.038;7.216;2023-12-20T15:25:38;7.30;99.90
1129;DHT22;553;51.038;7.216;2023-12-20T15:28:06;7.30;99.90
1129;DHT22;553;51.038;7.216;2023-12-20T15:30:33;7.30;99.90
1129;DHT22;553;51.038;7.216;2023-12-20T15:33:00;7.30;99.90
1129;DHT22;553;51.038;7.216;2023-12-20T15:35:32;7.30;99.90
1129;DHT22;553;51.038;7.216;2023-12-20T15:37:58;7.30;99.90
1129;DHT22;553;51.038;7.216;2023-12-20T15:40:26;7.30;99.90
1129;DHT22;553;51.038;7.216;2023-12-20T15:42:52;7.40;99.90
1129;DHT22;553;51.038;7.216;2023-12-20T15:45:20;7.40;99.90
1129;DHT22;553;51.038;7.216;2023-12-20T15:47:47;7.40;99.90
1129;DHT22;553;51.038;7.216;2023-12-20T15:50:14;7.30;99.90
1129;DHT22;553;51.038;7.216;2023-12-20T15:52:41;7.30;99.90
1129;DHT22;553;51.038;7.216;2023-12-20T15:55:09;7.30;99.90
1129;DHT22;553;51.038;7.216;2023-12-20T15:57:36;7.40;99.90
1129;DHT22;553;51.038;7.216;2023-12-20T16:00:19;7.40;99.90
1129;DHT22;553;51.038;7.216;2023-12-20T16:02:46;7.40;99.90
1129;DHT22;553;51.038;7.216;2023-12-20T16:05:12;7.40;99.90
1129;DHT22;553;51.038;7.216;2023-12-20T16:07:40;7.50;99.90
1129;DHT22;553;51.038;7.216;2023-12-20T16:10:07;7.40;99.90
1129;DHT22;553;51.038;7.216;2023-12-20T16:12:34;7.50;99.90
1129;DHT22;553;51.038;7.216;2023-12-20T16:15:02;7.50;99.90
1129;DHT22;553;51.038;7.216;2023-12-20T16:17:30;7.60;99.90
1129;DHT22;553;51.038;7.216;2023-12-20T16:19:56;7.50;99.90
1129;DHT22;553;51.038;7.216;2023-12-20T16:22:23;7.50;99.90
1129;DHT22;553;51.038;7.216;2023-12-20T16:24:50;7.50;99.90
1129;DHT22;553;51.038;7.216;2023-12-20T16:27:17;7.50;99.90
1129;DHT22;553;51.038;7.216;2023-12-20T16:29:44;7.60;99.90
1129;DHT22;553;51.038;7.216;2023-12-20T16:32:10;7.50;99.90
1129;DHT22;553;51.038;7.216;2023-12-20T16:34:37;7.50;99.90
1129;DHT22;553;51.038;7.216;2023-12-20T16:37:04;7.40;99.90